sensor_id;sensor_type;location;lat;lon;timestamp;temperature;humidity
66568;DHT22;53422;49.296;6.900;2023-09-18T00:00:01;21.00;99.90
66568;DHT22;53422;49.296;6.900;2023-09-18T00:02:27;21.00;99.90
66568;DHT22;53422;49.296;6.900;2023-09-18T00:04:54;21.00;99.90
66568;DHT22;53422;49.296;6.900;2023-09-18T00:07:20;21.00;99.90
66568;DHT22;53422;49.296;6.900;2023-09-18T00:09:46;21.00;99.90
66568;DHT22;53422;49.296;6.900;2023-09-18T00:12:11;21.10;99.90
66568;DHT22;53422;49.296;6.900;2023-09-18T00:14:37;21.10;99.90
66568;DHT22;53422;49.296;6.900;2023-09-18T00:17:03;21.10;99.90
66568;DHT22;53422;49.296;6.900;2023-09-18T00:19:29;21.10;99.90
66568;DHT22;53422;49.296;6.900;2023-09-18T00:21:55;21.10;99.90
66568;DHT22;53422;49.296;6.900;2023-09-18T00:24:21;21.10;99.90
66568;DHT22;53422;49.296;6.900;2023-09-18T00:26:48;21.10;99.90
66568;DHT22;53422;49.296;6.900;2023-09-18T00:29:14;21.10;99.90
66568;DHT22;53422;49.296;6.900;2023-09-18T00:31:40;21.10;99.90
66568;DHT22;53422;49.296;6.900;2023-09-18T00:34:05;21.10;99.90
66568;DHT22;53422;49.296;6.900;2023-09-18T00:36:31;21.10;99.90
66568;DHT22;53422;49.296;6.900;2023-09-18T00:38:56;21.10;99.90
66568;DHT22;53422;49.296;6.900;2023-09-18T00:41:22;21.10;99.90
66568;DHT22;53422;49.296;6.900;2023-09-18T00:43:48;21.10;99.90
66568;DHT22;53422;49.296;6.900;2023-09-18T00:46:13;21.10;99.90
66568;DHT22;53422;49.296;6.900;2023-09-18T00:48:40;21.10;99.90
66568;DHT22;53422;49.296;6.900;2023-09-18T00:51:11;21.10;99.90
66568;DHT22;53422;49.296;6.900;2023-09-18T00:53:38;21.10;99.90
66568;DHT22;53422;49.296;6.900;2023-09-18T00:56:04;21.10;99.90
66568;DHT22;53422;49.296;6.900;2023-09-18T00:58:33;21.10;99.90
66568;DHT22;53422;49.296;6.900;2023-09-18T01:00:59;21.10;99.90
66568;DHT22;53422;49.296;6.900;2023-09-18T01:03:25;21.10;99.90
66568;DHT22;53422;49.296;6.900;2023-09-18T01:05:51;21.10;99.90
66568;DHT22;53422;49.296;6.900;2023-09-18T01:08:16;21.10;99.90
66568;DHT22;53422;49.296;6.900;2023-09-18T01:13:34;21.00;99.90
66568;DHT22;53422;49.296;6.900;2023-09-18T01:16:13;21.10;99.90
66568;DHT22;53422;49.296;6.900;2023-09-18T01:18:51;21.00;99.90
66568;DHT22;53422;49.296;6.900;2023-09-18T01:21:20;21.00;99.90
66568;DHT22;53422;49.296;6.900;2023-09-18T01:23:46;21.00;99.90
66568;DHT22;53422;49.296;6.900;2023-09-18T01:26:12;21.00;99.90
66568;DHT22;53422;49.296;6.900;2023-09-18T01:28:37;21.00;99.90
66568;DHT22;53422;49.296;6.900;2023-09-18T01:31:03;21.00;99.90
66568;DHT22;53422;49.296;6.900;2023-09-18T01:33:29;21.00;99.90
66568;DHT22;53422;49.296;6.900;2023-09-18T01:35:56;21.00;99.90
66568;DHT22;53422;49.296;6.900;2023-09-18T01:38:26;21.00;99.90
66568;DHT22;53422;49.296;6.900;2023-09-18T01:40:53;21.00;99.90
66568;DHT22;53422;49.296;6.900;2023-09-18T01:43:19;21.00;99.90
66568;DHT22;53422;49.296;6.900;2023-09-18T01:45:46;21.00;99.90
66568;DHT22;53422;49.296;6.900;2023-09-18T01:48:12;21.00;99.90
66568;DHT22;53422;49.296;6.900;2023-09-18T01:50:37;21.00;99.90
66568;DHT22;53422;49.296;6.900;2023-09-18T01:53:05;21.00;99.90
66568;DHT22;53422;49.296;6.900;2023-09-18T01:55:31;21.00;99.90
66568;DHT22;53422;49.296;6.900;2023-09-18T01:57:58;20.90;99.90
66568;DHT22;53422;49.296;6.900;2023-09-18T02:00:23;20.90;99.90
66568;DHT22;53422;49.296;6.900;2023-09-18T02:02:49;20.90;99.90
66568;DHT22;53422;49.296;6.900;2023-09-18T02:05:18;20.90;99.90
66568;DHT22;53422;49.296;6.900;2023-09-18T02:07:43;20.90;99.90
66568;DHT22;53422;49.296;6.900;2023-09-18T02:10:09;20.90;99.90
66568;DHT22;53422;49.296;6.900;2023-09-18T02:12:34;20.90;99.90
66568;DHT22;53422;49.296;6.900;2023-09-18T02:15:03;20.90;99.90
66568;DHT22;53422;49.296;6.900;2023-09-18T02:17:31;20.90;99.90
66568;DHT22;53422;49.296;6.900;2023-09-18T02:19:57;20.90;99.90
66568;DHT22;53422;49.296;6.900;2023-09-18T02:22:22;20.90;99.90
66568;DHT22;53422;49.296;6.900;2023-09-18T02:24:48;20.90;99.90
66568;DHT22;53422;49.296;6.900;2023-09-18T02:27:14;20.90;99.90
66568;DHT22;53422;49.296;6.900;2023-09-18T02:29:39;20.90;99.90
66568;DHT22;53422;49.296;6.900;2023-09-18T02:32:05;20.90;99.90
66568;DHT22;53422;49.296;6.900;2023-09-18T02:34:30;20.80;99.90
66568;DHT22;53422;49.296;6.900;2023-09-18T02:36:56;20.80;99.90
66568;DHT22;53422;49.296;6.900;2023-09-18T02:39:22;20.90;99.90
66568;DHT22;53422;49.296;6.900;2023-09-18T02:41:48;20.80;99.90
66568;DHT22;53422;49.296;6.900;2023-09-18T02:44:13;20.90;99.90
66568;DHT22;53422;49.296;6.900;2023-09-18T02:46:39;20.90;99.90
66568;DHT22;53422;49.296;6.900;2023-09-18T02:49:05;20.80;99.90
66568;DHT22;53422;49.296;6.900;2023-09-18T02:51:31;20.90;99.90
66568;DHT22;53422;49.296;6.900;2023-09-18T02:53:59;20.80;99.90
66568;DHT22;53422;49.296;6.900;2023-09-18T02:56:25;20.80;99.90
66568;DHT22;53422;49.296;6.900;2023-09-18T02:58:50;20.80;99.90
66568;DHT22;53422;49.296;6.900;2023-09-18T03:01:16;20.80;99.90
66568;DHT22;53422;49.296;6.900;2023-09-18T03:03:42;20.80;99.90
66568;DHT22;53422;49.296;6.900;2023-09-18T03:06:08;20.80;99.90
66568;DHT22;53422;49.296;6.900;2023-09-18T03:08:34;20.80;99.90
66568;DHT22;53422;49.296;6.900;2023-09-18T03:11:00;20.80;99.90
66568;DHT22;53422;49.296;6.900;2023-09-18T03:13:27;20.80;99.90
66568;DHT22;53422;49.296;6.900;2023-09-18T03:15:53;20.80;99.90
66568;DHT22;53422;49.296;6.900;2023-09-18T03:18:18;20.80;99.90
66568;DHT22;53422;49.296;6.900;2023-09-18T03:20:44;20.80;99.90
66568;DHT22;53422;49.296;6.900;2023-09-18T03:23:10;20.80;99.90
66568;DHT22;53422;49.296;6.900;2023-09-18T03:25:36;20.80;99.90
66568;DHT22;53422;49.296;6.900;2023-09-18T03:28:03;20.80;99.90
66568;DHT22;53422;49.296;6.900;2023-09-18T03:30:29;20.80;99.90
66568;DHT22;53422;49.296;6.900;2023-09-18T03:32:55;20.70;99.90
66568;DHT22;53422;49.296;6.900;2023-09-18T03:35:20;20.70;99.90
66568;DHT22;53422;49.296;6.900;2023-09-18T03:40:12;20.70;99.90
66568;DHT22;53422;49.296;6.900;2023-09-18T03:42:38;20.70;99.90
66568;DHT22;53422;49.296;6.900;2023-09-18T03:45:13;20.70;99.90
66568;DHT22;53422;49.296;6.900;2023-09-18T03:47:40;20.70;99.90
66568;DHT22;53422;49.296;6.900;2023-09-18T03:50:09;20.70;99.90
66568;DHT22;53422;49.296;6.900;2023-09-18T03:52:36;20.70;99.90
66568;DHT22;53422;49.296;6.900;2023-09-18T03:55:08;20.70;99.90
66568;DHT22;53422;49.296;6.900;2023-09-18T03:57:34;20.70;99.90
66568;DHT22;53422;49.296;6.900;2023-09-18T03:59:59;20.70;99.90
66568;DHT22;53422;49.296;6.900;2023-09-18T04:02:25;20.70;99.90
66568;DHT22;53422;49.296;6.900;2023-09-18T04:04:51;20.60;99.90
66568;DHT22;53422;49.296;6.900;2023-09-18T04:07:18;20.60;99.90
66568;DHT22;53422;49.296;6.900;2023-09-18T04:09:45;20.70;99.90
66568;DHT22;53422;49.296;6.900;2023-09-18T04:12:10;20.70;99.90
66568;DHT22;53422;49.296;6.900;2023-09-18T04:14:36;20.60;99.90
66568;DHT22;53422;49.296;6.900;2023-09-18T04:17:02;20.60;99.90
66568;DHT22;53422;49.296;6.900;2023-09-18T04:19:28;20.60;99.90
66568;DHT22;53422;49.296;6.900;2023-09-18T04:21:54;20.60;99.90
66568;DHT22;53422;49.296;6.900;2023-09-18T04:24:20;20.60;99.90
66568;DHT22;53422;49.296;6.900;2023-09-18T04:26:48;20.60;99.90
66568;DHT22;53422;49.296;6.900;2023-09-18T04:29:18;20.60;99.90
66568;DHT22;53422;49.296;6.900;2023-09-18T04:31:44;20.60;99.90
66568;DHT22;53422;49.296;6.900;2023-09-18T04:34:10;20.60;99.90
66568;DHT22;53422;49.296;6.900;2023-09-18T04:36:38;20.50;99.90
66568;DHT22;53422;49.296;6.900;2023-09-18T04:39:07;20.50;99.90
66568;DHT22;53422;49.296;6.900;2023-09-18T04:41:34;20.50;99.90
66568;DHT22;53422;49.296;6.900;2023-09-18T04:44:00;20.50;99.90
66568;DHT22;53422;49.296;6.900;2023-09-18T04:46:25;20.50;99.90
66568;DHT22;53422;49.296;6.900;2023-09-18T04:48:51;20.50;99.90
66568;DHT22;53422;49.296;6.900;2023-09-18T04:51:17;20.50;99.90
66568;DHT22;53422;49.296;6.900;2023-09-18T04:53:42;20.50;99.90
66568;DHT22;53422;49.296;6.900;2023-09-18T04:56:08;20.50;99.90
66568;DHT22;53422;49.296;6.900;2023-09-18T04:58:36;20.50;99.90
66568;DHT22;53422;49.296;6.900;2023-09-18T05:01:02;20.40;99.90
66568;DHT22;53422;49.296;6.900;2023-09-18T05:03:32;20.40;99.90
66568;DHT22;53422;49.296;6.900;2023-09-18T05:05:58;20.40;99.90
66568;DHT22;53422;49.296;6.900;2023-09-18T05:08:24;20.40;99.90
66568;DHT22;53422;49.296;6.900;2023-09-18T05:10:49;20.40;99.90
66568;DHT22;53422;49.296;6.900;2023-09-18T05:13:16;20.50;99.90
66568;DHT22;53422;49.296;6.900;2023-09-18T05:15:41;20.40;99.90
66568;DHT22;53422;49.296;6.900;2023-09-18T05:18:07;20.40;99.90
66568;DHT22;53422;49.296;6.900;2023-09-18T05:20:34;20.40;99.90
66568;DHT22;53422;49.296;6.900;2023-09-18T05:23:00;20.40;99.90
66568;DHT22;53422;49.296;6.900;2023-09-18T05:25:28;20.30;99.90
66568;DHT22;53422;49.296;6.900;2023-09-18T05:27:57;20.30;99.90
66568;DHT22;53422;49.296;6.900;2023-09-18T05:30:27;20.40;99.90
66568;DHT22;53422;49.296;6.900;2023-09-18T05:32:54;20.30;99.90
66568;DHT22;53422;49.296;6.900;2023-09-18T05:35:20;20.30;99.90
66568;DHT22;53422;49.296;6.900;2023-09-18T05:37:46;20.30;99.90
66568;DHT22;53422;49.296;6.900;2023-09-18T05:40:13;20.40;99.90
66568;DHT22;53422;49.296;6.900;2023-09-18T05:42:42;20.30;99.90
66568;DHT22;53422;49.296;6.900;2023-09-18T05:45:12;20.30;99.90
66568;DHT22;53422;49.296;6.900;2023-09-18T05:47:39;20.30;99.90
66568;DHT22;53422;49.296;6.900;2023-09-18T05:50:06;20.30;99.90
66568;DHT22;53422;49.296;6.900;2023-09-18T05:52:33;20.30;99.90
66568;DHT22;53422;49.296;6.900;2023-09-18T05:55:00;20.30;99.90
66568;DHT22;53422;49.296;6.900;2023-09-18T05:57:26;20.20;99.90
66568;DHT22;53422;49.296;6.900;2023-09-18T05:59:56;20.30;99.90
66568;DHT22;53422;49.296;6.900;2023-09-18T06:02:22;20.30;99.90
66568;DHT22;53422;49.296;6.900;2023-09-18T06:04:48;20.20;99.90
66568;DHT22;53422;49.296;6.900;2023-09-18T06:07:14;20.20;99.90
66568;DHT22;53422;49.296;6.900;2023-09-18T06:09:40;20.20;99.90
66568;DHT22;53422;49.296;6.900;2023-09-18T06:12:06;20.20;99.90
66568;DHT22;53422;49.296;6.900;2023-09-18T06:14:32;20.20;99.90
66568;DHT22;53422;49.296;6.900;2023-09-18T06:17:03;20.20;99.90
66568;DHT22;53422;49.296;6.900;2023-09-18T06:19:29;20.10;99.90
66568;DHT22;53422;49.296;6.900;2023-09-18T06:21:55;20.20;99.90
66568;DHT22;53422;49.296;6.900;2023-09-18T06:24:20;20.20;99.90
66568;DHT22;53422;49.296;6.900;2023-09-18T06:26:46;20.10;99.90
66568;DHT22;53422;49.296;6.900;2023-09-18T06:29:12;20.20;99.90
66568;DHT22;53422;49.296;6.900;2023-09-18T06:31:37;20.20;99.90
66568;DHT22;53422;49.296;6.900;2023-09-18T06:34:03;20.20;99.90
66568;DHT22;53422;49.296;6.900;2023-09-18T06:36:28;20.20;99.90
66568;DHT22;53422;49.296;6.900;2023-09-18T06:38:54;20.20;99.90
66568;DHT22;53422;49.296;6.900;2023-09-18T06:41:19;20.20;99.90
66568;DHT22;53422;49.296;6.900;2023-09-18T06:43:45;20.20;99.90
66568;DHT22;53422;49.296;6.900;2023-09-18T06:46:11;20.20;99.90
66568;DHT22;53422;49.296;6.900;2023-09-18T06:48:36;20.20;99.90
66568;DHT22;53422;49.296;6.900;2023-09-18T06:51:02;20.20;99.90
66568;DHT22;53422;49.296;6.900;2023-09-18T06:53:28;20.20;99.90
66568;DHT22;53422;49.296;6.900;2023-09-18T06:55:55;20.20;99.90
66568;DHT22;53422;49.296;6.900;2023-09-18T06:58:20;20.20;99.90
66568;DHT22;53422;49.296;6.900;2023-09-18T07:00:47;20.10;99.90
66568;DHT22;53422;49.296;6.900;2023-09-18T07:03:16;20.20;99.90
66568;DHT22;53422;49.296;6.900;2023-09-18T07:05:43;20.10;99.90
66568;DHT22;53422;49.296;6.900;2023-09-18T07:08:08;20.10;99.90
66568;DHT22;53422;49.296;6.900;2023-09-18T07:10:37;20.10;99.90
66568;DHT22;53422;49.296;6.900;2023-09-18T07:13:03;20.10;99.90
66568;DHT22;53422;49.296;6.900;2023-09-18T07:15:29;20.20;99.90
66568;DHT22;53422;49.296;6.900;2023-09-18T07:17:54;20.20;99.90
66568;DHT22;53422;49.296;6.900;2023-09-18T07:20:20;20.20;99.90
66568;DHT22;53422;49.296;6.900;2023-09-18T07:22:48;20.20;99.90
66568;DHT22;53422;49.296;6.900;2023-09-18T07:25:14;20.20;99.90
66568;DHT22;53422;49.296;6.900;2023-09-18T07:27:40;20.20;99.90
66568;DHT22;53422;49.296;6.900;2023-09-18T07:30:13;20.10;99.90
66568;DHT22;53422;49.296;6.900;2023-09-18T07:32:43;20.10;99.90
66568;DHT22;53422;49.296;6.900;2023-09-18T07:35:12;20.10;99.90
66568;DHT22;53422;49.296;6.900;2023-09-18T07:37:41;20.20;99.90
66568;DHT22;53422;49.296;6.900;2023-09-18T07:40:07;20.10;99.90
66568;DHT22;53422;49.296;6.900;2023-09-18T07:42:33;20.10;99.90
66568;DHT22;53422;49.296;6.900;2023-09-18T07:44:59;20.10;99.90
66568;DHT22;53422;49.296;6.900;2023-09-18T07:47:25;20.20;99.90
66568;DHT22;53422;49.296;6.900;2023-09-18T07:49:51;20.20;99.90
66568;DHT22;53422;49.296;6.900;2023-09-18T07:52:17;20.20;99.90
66568;DHT22;53422;49.296;6.900;2023-09-18T07:54:43;20.20;99.90
66568;DHT22;53422;49.296;6.900;2023-09-18T07:57:09;20.20;99.90
66568;DHT22;53422;49.296;6.900;2023-09-18T07:59:38;20.20;99.90
66568;DHT22;53422;49.296;6.900;2023-09-18T08:02:12;20.20;99.90
66568;DHT22;53422;49.296;6.900;2023-09-18T08:04:41;20.20;99.90
66568;DHT22;53422;49.296;6.900;2023-09-18T08:07:08;20.20;99.90
66568;DHT22;53422;49.296;6.900;2023-09-18T08:09:33;20.20;99.90
66568;DHT22;53422;49.296;6.900;2023-09-18T08:12:03;20.20;99.90
66568;DHT22;53422;49.296;6.900;2023-09-18T08:14:28;20.20;99.90
66568;DHT22;53422;49.296;6.900;2023-09-18T08:16:58;20.20;99.90
66568;DHT22;53422;49.296;6.900;2023-09-18T08:19:24;20.20;99.90
66568;DHT22;53422;49.296;6.900;2023-09-18T08:21:54;20.20;99.90
66568;DHT22;53422;49.296;6.900;2023-09-18T08:24:21;20.30;99.90
66568;DHT22;53422;49.296;6.900;2023-09-18T08:26:47;20.30;99.90
66568;DHT22;53422;49.296;6.900;2023-09-18T08:29:13;20.30;99.90
66568;DHT22;53422;49.296;6.900;2023-09-18T08:31:38;20.40;99.90
66568;DHT22;53422;49.296;6.900;2023-09-18T08:34:04;20.40;99.90
66568;DHT22;53422;49.296;6.900;2023-09-18T08:36:30;20.40;99.90
66568;DHT22;53422;49.296;6.900;2023-09-18T08:38:56;20.40;99.90
66568;DHT22;53422;49.296;6.900;2023-09-18T08:41:23;20.50;99.90
66568;DHT22;53422;49.296;6.900;2023-09-18T08:43:55;20.50;99.90
66568;DHT22;53422;49.296;6.900;2023-09-18T08:46:22;20.60;99.90
66568;DHT22;53422;49.296;6.900;2023-09-18T08:48:48;20.60;99.90
66568;DHT22;53422;49.296;6.900;2023-09-18T08:51:16;20.70;99.90
66568;DHT22;53422;49.296;6.900;2023-09-18T08:53:44;20.70;99.90
66568;DHT22;53422;49.296;6.900;2023-09-18T08:56:10;20.70;99.90
66568;DHT22;53422;49.296;6.900;2023-09-18T08:58:40;20.70;99.90
66568;DHT22;53422;49.296;6.900;2023-09-18T09:01:09;20.80;99.90
66568;DHT22;53422;49.296;6.900;2023-09-18T09:03:38;20.90;99.90
66568;DHT22;53422;49.296;6.900;2023-09-18T09:06:08;20.90;99.90
66568;DHT22;53422;49.296;6.900;2023-09-18T09:08:35;21.00;99.90
66568;DHT22;53422;49.296;6.900;2023-09-18T09:11:01;21.00;99.90
66568;DHT22;53422;49.296;6.900;2023-09-18T09:13:26;21.00;99.90
66568;DHT22;53422;49.296;6.900;2023-09-18T09:15:54;21.10;99.90
66568;DHT22;53422;49.296;6.900;2023-09-18T09:18:22;21.10;99.90
66568;DHT22;53422;49.296;6.900;2023-09-18T09:20:56;21.20;99.90
66568;DHT22;53422;49.296;6.900;2023-09-18T09:23:26;21.10;99.90
66568;DHT22;53422;49.296;6.900;2023-09-18T09:25:52;21.20;99.90
66568;DHT22;53422;49.296;6.900;2023-09-18T09:28:30;21.30;99.90
66568;DHT22;53422;49.296;6.900;2023-09-18T09:31:02;21.20;99.90
66568;DHT22;53422;49.296;6.900;2023-09-18T09:33:28;21.30;99.90
66568;DHT22;53422;49.296;6.900;2023-09-18T09:35:55;21.30;99.90
66568;DHT22;53422;49.296;6.900;2023-09-18T09:38:31;21.30;99.90
66568;DHT22;53422;49.296;6.900;2023-09-18T09:40:58;21.40;99.90
66568;DHT22;53422;49.296;6.900;2023-09-18T09:43:26;21.40;99.90
66568;DHT22;53422;49.296;6.900;2023-09-18T09:45:57;21.40;99.90
66568;DHT22;53422;49.296;6.900;2023-09-18T09:48:23;21.50;99.90
66568;DHT22;53422;49.296;6.900;2023-09-18T09:50:51;21.40;99.90
66568;DHT22;53422;49.296;6.900;2023-09-18T09:53:17;21.50;99.90
66568;DHT22;53422;49.296;6.900;2023-09-18T09:55:44;21.50;99.90
66568;DHT22;53422;49.296;6.900;2023-09-18T09:58:11;21.50;99.90
66568;DHT22;53422;49.296;6.900;2023-09-18T10:00:43;21.50;99.90
66568;DHT22;53422;49.296;6.900;2023-09-18T10:03:17;21.50;99.90
66568;DHT22;53422;49.296;6.900;2023-09-18T10:05:46;21.50;99.90
66568;DHT22;53422;49.296;6.900;2023-09-18T10:08:14;21.50;99.90
66568;DHT22;53422;49.296;6.900;2023-09-18T10:10:47;21.40;99.90
66568;DHT22;53422;49.296;6.900;2023-09-18T10:13:35;21.50;99.90
66568;DHT22;53422;49.296;6.900;2023-09-18T10:16:04;21.50;99.90
66568;DHT22;53422;49.296;6.900;2023-09-18T10:18:49;21.50;99.90
66568;DHT22;53422;49.296;6.900;2023-09-18T10:21:50;21.50;99.90
66568;DHT22;53422;49.296;6.900;2023-09-18T10:24:28;21.50;99.90
66568;DHT22;53422;49.296;6.900;2023-09-18T10:27:01;21.50;99.90
66568;DHT22;53422;49.296;6.900;2023-09-18T10:29:31;21.50;99.90
66568;DHT22;53422;49.296;6.900;2023-09-18T10:31:58;21.50;99.90
66568;DHT22;53422;49.296;6.900;2023-09-18T10:34:25;21.50;99.90
66568;DHT22;53422;49.296;6.900;2023-09-18T10:36:53;21.60;99.90
66568;DHT22;53422;49.296;6.900;2023-09-18T10:39:20;21.60;99.90
66568;DHT22;53422;49.296;6.900;2023-09-18T10:41:53;21.60;99.90
66568;DHT22;53422;49.296;6.900;2023-09-18T10:44:19;21.60;99.90
66568;DHT22;53422;49.296;6.900;2023-09-18T10:46:46;21.60;99.90
66568;DHT22;53422;49.296;6.900;2023-09-18T10:49:12;21.70;99.90
66568;DHT22;53422;49.296;6.900;2023-09-18T10:51:38;21.70;99.90
66568;DHT22;53422;49.296;6.900;2023-09-18T10:54:09;21.80;99.90
66568;DHT22;53422;49.296;6.900;2023-09-18T10:56:34;21.90;99.90
66568;DHT22;53422;49.296;6.900;2023-09-18T10:59:02;22.00;99.90
66568;DHT22;53422;49.296;6.900;2023-09-18T11:01:30;22.00;99.90
66568;DHT22;53422;49.296;6.900;2023-09-18T11:04:00;22.10;99.90
66568;DHT22;53422;49.296;6.900;2023-09-18T11:06:27;22.10;99.90
66568;DHT22;53422;49.296;6.900;2023-09-18T11:09:01;22.20;99.90
66568;DHT22;53422;49.296;6.900;2023-09-18T11:11:29;22.30;99.90
66568;DHT22;53422;49.296;6.900;2023-09-18T11:13:58;22.30;99.90
66568;DHT22;53422;49.296;6.900;2023-09-18T11:21:32;22.50;99.90
66568;DHT22;53422;49.296;6.900;2023-09-18T11:24:08;22.50;99.90
66568;DHT22;53422;49.296;6.900;2023-09-18T11:26:40;22.60;99.90
66568;DHT22;53422;49.296;6.900;2023-09-18T11:29:11;22.60;99.90
66568;DHT22;53422;49.296;6.900;2023-09-18T11:31:56;22.70;99.90
66568;DHT22;53422;49.296;6.900;2023-09-18T11:34:27;22.70;99.90
66568;DHT22;53422;49.296;6.900;2023-09-18T11:37:21;22.80;99.90
66568;DHT22;53422;49.296;6.900;2023-09-18T11:39:46;22.90;99.90
66568;DHT22;53422;49.296;6.900;2023-09-18T11:42:19;22.90;99.90
66568;DHT22;53422;49.296;6.900;2023-09-18T11:44:49;23.00;99.90
66568;DHT22;53422;49.296;6.900;2023-09-18T11:47:15;23.00;99.90
66568;DHT22;53422;49.296;6.900;2023-09-18T11:49:52;23.10;99.90
66568;DHT22;53422;49.296;6.900;2023-09-18T11:52:27;23.20;99.90
66568;DHT22;53422;49.296;6.900;2023-09-18T11:54:56;23.20;99.90
66568;DHT22;53422;49.296;6.900;2023-09-18T11:57:22;23.30;99.90
66568;DHT22;53422;49.296;6.900;2023-09-18T11:59:48;23.30;99.90
66568;DHT22;53422;49.296;6.900;2023-09-18T12:02:29;23.50;99.90
66568;DHT22;53422;49.296;6.900;2023-09-18T12:05:14;23.50;99.90
66568;DHT22;53422;49.296;6.900;2023-09-18T12:07:43;23.50;99.90
66568;DHT22;53422;49.296;6.900;2023-09-18T12:10:17;23.70;99.90
66568;DHT22;53422;49.296;6.900;2023-09-18T12:12:43;23.70;99.90
66568;DHT22;53422;49.296;6.900;2023-09-18T12:15:17;23.70;99.90
66568;DHT22;53422;49.296;6.900;2023-09-18T12:17:43;23.70;99.90
66568;DHT22;53422;49.296;6.900;2023-09-18T12:20:18;23.80;99.90
66568;DHT22;53422;49.296;6.900;2023-09-18T12:22:47;23.90;99.90
66568;DHT22;53422;49.296;6.900;2023-09-18T12:25:14;23.90;99.90
66568;DHT22;53422;49.296;6.900;2023-09-18T12:27:43;23.90;99.90
66568;DHT22;53422;49.296;6.900;2023-09-18T12:30:09;23.90;99.90
66568;DHT22;53422;49.296;6.900;2023-09-18T12:32:37;24.00;99.90
66568;DHT22;53422;49.296;6.900;2023-09-18T12:35:06;24.10;99.90
66568;DHT22;53422;49.296;6.900;2023-09-18T12:37:34;24.10;99.90
66568;DHT22;53422;49.296;6.900;2023-09-18T12:40:00;24.10;99.90
66568;DHT22;53422;49.296;6.900;2023-09-18T12:42:26;24.30;99.90
66568;DHT22;53422;49.296;6.900;2023-09-18T12:44:52;24.20;99.90
66568;DHT22;53422;49.296;6.900;2023-09-18T12:47:19;24.20;99.90
66568;DHT22;53422;49.296;6.900;2023-09-18T12:49:45;24.30;99.90
66568;DHT22;53422;49.296;6.900;2023-09-18T12:52:12;24.40;99.90
66568;DHT22;53422;49.296;6.900;2023-09-18T12:54:40;24.40;99.90
66568;DHT22;53422;49.296;6.900;2023-09-18T12:57:07;24.50;98.80
66568;DHT22;53422;49.296;6.900;2023-09-18T12:59:34;24.50;99.90
66568;DHT22;53422;49.296;6.900;2023-09-18T13:02:05;24.50;99.90
66568;DHT22;53422;49.296;6.900;2023-09-18T13:04:35;24.60;99.90
66568;DHT22;53422;49.296;6.900;2023-09-18T13:07:11;24.70;99.00
66568;DHT22;53422;49.296;6.900;2023-09-18T13:09:40;24.70;98.20
66568;DHT22;53422;49.296;6.900;2023-09-18T13:12:07;24.80;96.60
66568;DHT22;53422;49.296;6.900;2023-09-18T13:14:58;24.80;96.50
66568;DHT22;53422;49.296;6.900;2023-09-18T13:17:26;24.80;98.40
66568;DHT22;53422;49.296;6.900;2023-09-18T13:19:52;24.90;97.00
66568;DHT22;53422;49.296;6.900;2023-09-18T13:22:25;24.80;99.60
66568;DHT22;53422;49.296;6.900;2023-09-18T13:24:55;24.80;98.60
66568;DHT22;53422;49.296;6.900;2023-09-18T13:27:22;24.90;98.80
66568;DHT22;53422;49.296;6.900;2023-09-18T13:29:48;24.90;97.20
66568;DHT22;53422;49.296;6.900;2023-09-18T13:32:14;25.00;97.70
66568;DHT22;53422;49.296;6.900;2023-09-18T13:34:40;24.90;97.00
66568;DHT22;53422;49.296;6.900;2023-09-18T13:37:06;25.00;96.80
66568;DHT22;53422;49.296;6.900;2023-09-18T13:39:31;25.00;96.90
66568;DHT22;53422;49.296;6.900;2023-09-18T13:41:57;25.10;95.70
66568;DHT22;53422;49.296;6.900;2023-09-18T13:44:22;25.10;96.90
66568;DHT22;53422;49.296;6.900;2023-09-18T13:46:48;25.10;94.50
66568;DHT22;53422;49.296;6.900;2023-09-18T13:49:13;25.20;95.30
66568;DHT22;53422;49.296;6.900;2023-09-18T13:51:39;25.30;93.80
66568;DHT22;53422;49.296;6.900;2023-09-18T13:54:05;25.30;93.30
66568;DHT22;53422;49.296;6.900;2023-09-18T13:56:33;25.30;93.80
66568;DHT22;53422;49.296;6.900;2023-09-18T13:58:58;25.30;94.10
66568;DHT22;53422;49.296;6.900;2023-09-18T14:01:24;25.40;92.90
66568;DHT22;53422;49.296;6.900;2023-09-18T14:03:52;25.40;90.40
66568;DHT22;53422;49.296;6.900;2023-09-18T14:06:17;25.40;90.40
66568;DHT22;53422;49.296;6.900;2023-09-18T14:08:43;25.40;90.00
66568;DHT22;53422;49.296;6.900;2023-09-18T14:11:09;25.40;87.30
66568;DHT22;53422;49.296;6.900;2023-09-18T14:13:35;25.40;91.20
66568;DHT22;53422;49.296;6.900;2023-09-18T14:16:00;25.40;90.70
66568;DHT22;53422;49.296;6.900;2023-09-18T14:18:29;25.40;89.70
66568;DHT22;53422;49.296;6.900;2023-09-18T14:20:54;25.40;91.80
66568;DHT22;53422;49.296;6.900;2023-09-18T14:23:20;25.30;93.30
66568;DHT22;53422;49.296;6.900;2023-09-18T14:25:46;25.30;91.80
66568;DHT22;53422;49.296;6.900;2023-09-18T14:28:11;25.40;90.00
66568;DHT22;53422;49.296;6.900;2023-09-18T14:30:37;25.40;91.30
66568;DHT22;53422;49.296;6.900;2023-09-18T14:33:03;25.50;88.70
66568;DHT22;53422;49.296;6.900;2023-09-18T14:35:29;25.40;90.80
66568;DHT22;53422;49.296;6.900;2023-09-18T14:37:55;25.40;90.50
66568;DHT22;53422;49.296;6.900;2023-09-18T14:40:21;25.40;90.40
66568;DHT22;53422;49.296;6.900;2023-09-18T14:42:47;25.40;90.20
66568;DHT22;53422;49.296;6.900;2023-09-18T14:45:12;25.30;88.60
66568;DHT22;53422;49.296;6.900;2023-09-18T14:47:39;25.30;89.50
66568;DHT22;53422;49.296;6.900;2023-09-18T14:50:05;25.30;90.20
66568;DHT22;53422;49.296;6.900;2023-09-18T14:52:31;25.30;90.00
66568;DHT22;53422;49.296;6.900;2023-09-18T14:54:57;25.30;90.10
66568;DHT22;53422;49.296;6.900;2023-09-18T14:57:23;25.20;89.50
66568;DHT22;53422;49.296;6.900;2023-09-18T14:59:49;25.20;91.30
66568;DHT22;53422;49.296;6.900;2023-09-18T15:02:15;25.10;90.00
66568;DHT22;53422;49.296;6.900;2023-09-18T15:04:43;25.10;89.40
66568;DHT22;53422;49.296;6.900;2023-09-18T15:07:09;25.00;90.00
66568;DHT22;53422;49.296;6.900;2023-09-18T15:09:36;25.00;90.40
66568;DHT22;53422;49.296;6.900;2023-09-18T15:12:01;24.90;93.20
66568;DHT22;53422;49.296;6.900;2023-09-18T15:14:28;24.90;93.10
66568;DHT22;53422;49.296;6.900;2023-09-18T15:16:54;24.80;93.70
66568;DHT22;53422;49.296;6.900;2023-09-18T15:19:21;24.70;95.60
66568;DHT22;53422;49.296;6.900;2023-09-18T15:21:47;24.60;95.30
66568;DHT22;53422;49.296;6.900;2023-09-18T15:24:13;24.50;95.20
66568;DHT22;53422;49.296;6.900;2023-09-18T15:26:39;24.40;93.90
66568;DHT22;53422;49.296;6.900;2023-09-18T15:29:05;24.30;94.20
66568;DHT22;53422;49.296;6.900;2023-09-18T15:31:30;24.10;94.90
66568;DHT22;53422;49.296;6.900;2023-09-18T15:33:56;23.90;95.80
66568;DHT22;53422;49.296;6.900;2023-09-18T15:36:21;23.70;96.90
66568;DHT22;53422;49.296;6.900;2023-09-18T15:38:49;23.20;99.90
66568;DHT22;53422;49.296;6.900;2023-09-18T15:41:15;23.00;99.90